sensor_id;sensor_type;location;lat;lon;timestamp;P1;durP1;ratioP1;P2;durP2;ratioP2
53293;SDS011;39181;53.440;5.644;2022-11-20T00:01:18;4.63;;;3.03;;
53293;SDS011;39181;53.440;5.644;2022-11-20T00:03:51;6.68;;;3.33;;
53293;SDS011;39181;53.440;5.644;2022-11-20T00:06:18;6.22;;;3.33;;
53293;SDS011;39181;53.440;5.644;2022-11-20T00:08:45;5.75;;;3.08;;
53293;SDS011;39181;53.440;5.644;2022-11-20T00:11:12;5.90;;;3.40;;
53293;SDS011;39181;53.440;5.644;2022-11-20T00:13:38;5.60;;;3.13;;
53293;SDS011;39181;53.440;5.644;2022-11-20T00:16:05;5.00;;;3.20;;
53293;SDS011;39181;53.440;5.644;2022-11-20T00:18:32;5.65;;;3.42;;
53293;SDS011;39181;53.440;5.644;2022-11-20T00:21:06;6.13;;;3.13;;
53293;SDS011;39181;53.440;5.644;2022-11-20T00:23:35;7.38;;;3.58;;
53293;SDS011;39181;53.440;5.644;2022-11-20T00:26:01;9.35;;;3.28;;
53293;SDS011;39181;53.440;5.644;2022-11-20T00:28:28;4.93;;;3.15;;
53293;SDS011;39181;53.440;5.644;2022-11-20T00:31:00;6.38;;;3.47;;
53293;SDS011;39181;53.440;5.644;2022-11-20T00:33:27;5.50;;;3.55;;
53293;SDS011;39181;53.440;5.644;2022-11-20T00:35:52;4.70;;;3.13;;
53293;SDS011;39181;53.440;5.644;2022-11-20T00:38:18;4.57;;;3.22;;
53293;SDS011;39181;53.440;5.644;2022-11-20T00:40:43;3.50;;;2.72;;
53293;SDS011;39181;53.440;5.644;2022-11-20T00:43:09;7.68;;;3.97;;
53293;SDS011;39181;53.440;5.644;2022-11-20T00:45:34;4.35;;;3.00;;
53293;SDS011;39181;53.440;5.644;2022-11-20T00:48:00;4.57;;;3.33;;
53293;SDS011;39181;53.440;5.644;2022-11-20T00:50:25;9.00;;;3.15;;
53293;SDS011;39181;53.440;5.644;2022-11-20T00:52:51;3.92;;;2.35;;
53293;SDS011;39181;53.440;5.644;2022-11-20T00:55:16;4.28;;;2.45;;
53293;SDS011;39181;53.440;5.644;2022-11-20T00:57:42;3.88;;;2.70;;
53293;SDS011;39181;53.440;5.644;2022-11-20T01:00:08;5.07;;;2.97;;
53293;SDS011;39181;53.440;5.644;2022-11-20T01:02:34;2.90;;;2.10;;
53293;SDS011;39181;53.440;5.644;2022-11-20T01:04:59;4.85;;;2.25;;
53293;SDS011;39181;53.440;5.644;2022-11-20T01:07:25;6.32;;;2.25;;
53293;SDS011;39181;53.440;5.644;2022-11-20T01:09:50;3.97;;;2.40;;
53293;SDS011;39181;53.440;5.644;2022-11-20T01:12:16;5.30;;;2.75;;
53293;SDS011;39181;53.440;5.644;2022-11-20T01:14:41;6.82;;;3.45;;
53293;SDS011;39181;53.440;5.644;2022-11-20T01:17:07;4.95;;;2.28;;
53293;SDS011;39181;53.440;5.644;2022-11-20T01:19:32;5.20;;;2.53;;
53293;SDS011;39181;53.440;5.644;2022-11-20T01:21:58;3.63;;;2.53;;
53293;SDS011;39181;53.440;5.644;2022-11-20T01:24:23;5.10;;;2.72;;
53293;SDS011;39181;53.440;5.644;2022-11-20T01:26:49;5.35;;;2.90;;
53293;SDS011;39181;53.440;5.644;2022-11-20T01:29:17;4.20;;;2.58;;
53293;SDS011;39181;53.440;5.644;2022-11-20T01:31:44;4.22;;;2.70;;
53293;SDS011;39181;53.440;5.644;2022-11-20T01:34:11;5.03;;;2.60;;
53293;SDS011;39181;53.440;5.644;2022-11-20T01:36:39;5.25;;;2.88;;
53293;SDS011;39181;53.440;5.644;2022-11-20T01:41:42;4.22;;;2.53;;
53293;SDS011;39181;53.440;5.644;2022-11-20T01:47:43;3.92;;;2.50;;
53293;SDS011;39181;53.440;5.644;2022-11-20T01:50:15;4.93;;;2.78;;
53293;SDS011;39181;53.440;5.644;2022-11-20T01:52:47;5.78;;;3.63;;
53293;SDS011;39181;53.440;5.644;2022-11-20T01:55:19;4.72;;;2.85;;
53293;SDS011;39181;53.440;5.644;2022-11-20T01:57:48;7.63;;;3.38;;
53293;SDS011;39181;53.440;5.644;2022-11-20T02:00:15;4.05;;;2.70;;
53293;SDS011;39181;53.440;5.644;2022-11-20T02:02:43;4.63;;;2.65;;
53293;SDS011;39181;53.440;5.644;2022-11-20T02:07:57;6.22;;;3.58;;
53293;SDS011;39181;53.440;5.644;2022-11-20T02:10:24;4.68;;;2.90;;
53293;SDS011;39181;53.440;5.644;2022-11-20T02:12:50;6.50;;;3.60;;
53293;SDS011;39181;53.440;5.644;2022-11-20T02:15:35;5.53;;;3.28;;
53293;SDS011;39181;53.440;5.644;2022-11-20T02:18:00;4.88;;;2.92;;
53293;SDS011;39181;53.440;5.644;2022-11-20T02:20:26;5.20;;;3.47;;
53293;SDS011;39181;53.440;5.644;2022-11-20T02:25:26;5.03;;;3.40;;
53293;SDS011;39181;53.440;5.644;2022-11-20T02:27:53;6.45;;;3.95;;
53293;SDS011;39181;53.440;5.644;2022-11-20T02:30:19;5.63;;;3.20;;
53293;SDS011;39181;53.440;5.644;2022-11-20T02:32:45;5.15;;;3.20;;
53293;SDS011;39181;53.440;5.644;2022-11-20T02:37:47;5.22;;;2.92;;
53293;SDS011;39181;53.440;5.644;2022-11-20T02:40:14;4.47;;;2.60;;
53293;SDS011;39181;53.440;5.644;2022-11-20T02:42:40;4.90;;;2.60;;
53293;SDS011;39181;53.440;5.644;2022-11-20T02:45:06;4.15;;;2.70;;
53293;SDS011;39181;53.440;5.644;2022-11-20T02:47:32;3.88;;;2.67;;
53293;SDS011;39181;53.440;5.644;2022-11-20T02:49:58;4.53;;;2.80;;
53293;SDS011;39181;53.440;5.644;2022-11-20T02:52:24;5.35;;;3.33;;
53293;SDS011;39181;53.440;5.644;2022-11-20T02:54:50;3.45;;;2.50;;
53293;SDS011;39181;53.440;5.644;2022-11-20T02:57:15;3.78;;;2.40;;
53293;SDS011;39181;53.440;5.644;2022-11-20T02:59:41;5.10;;;2.53;;
53293;SDS011;39181;53.440;5.644;2022-11-20T03:02:07;4.35;;;2.80;;
53293;SDS011;39181;53.440;5.644;2022-11-20T03:04:32;4.35;;;2.65;;
53293;SDS011;39181;53.440;5.644;2022-11-20T03:06:58;2.95;;;2.15;;
53293;SDS011;39181;53.440;5.644;2022-11-20T03:09:23;4.32;;;2.60;;
53293;SDS011;39181;53.440;5.644;2022-11-20T03:11:49;4.53;;;2.58;;
53293;SDS011;39181;53.440;5.644;2022-11-20T03:14:14;6.50;;;2.28;;
53293;SDS011;39181;53.440;5.644;2022-11-20T03:16:40;4.20;;;2.72;;
53293;SDS011;39181;53.440;5.644;2022-11-20T03:19:06;4.22;;;2.60;;
53293;SDS011;39181;53.440;5.644;2022-11-20T03:21:35;5.65;;;3.30;;
53293;SDS011;39181;53.440;5.644;2022-11-20T03:24:00;5.68;;;3.83;;
53293;SDS011;39181;53.440;5.644;2022-11-20T03:26:26;4.70;;;3.05;;
53293;SDS011;39181;53.440;5.644;2022-11-20T03:28:56;5.28;;;3.10;;
53293;SDS011;39181;53.440;5.644;2022-11-20T03:31:27;5.32;;;3.30;;
53293;SDS011;39181;53.440;5.644;2022-11-20T03:33:55;7.70;;;3.10;;
53293;SDS011;39181;53.440;5.644;2022-11-20T03:36:22;6.07;;;3.25;;
53293;SDS011;39181;53.440;5.644;2022-11-20T03:38:47;4.93;;;3.10;;
53293;SDS011;39181;53.440;5.644;2022-11-20T03:41:15;4.78;;;2.65;;
53293;SDS011;39181;53.440;5.644;2022-11-20T03:43:46;3.53;;;2.78;;
53293;SDS011;39181;53.440;5.644;2022-11-20T03:46:16;5.20;;;2.92;;
53293;SDS011;39181;53.440;5.644;2022-11-20T03:48:42;4.90;;;2.88;;
53293;SDS011;39181;53.440;5.644;2022-11-20T03:51:09;5.88;;;3.40;;
53293;SDS011;39181;53.440;5.644;2022-11-20T03:53:39;4.18;;;2.58;;
53293;SDS011;39181;53.440;5.644;2022-11-20T03:56:06;6.35;;;3.65;;
53293;SDS011;39181;53.440;5.644;2022-11-20T03:58:33;6.70;;;4.10;;
53293;SDS011;39181;53.440;5.644;2022-11-20T04:01:08;4.13;;;3.22;;
53293;SDS011;39181;53.440;5.644;2022-11-20T04:03:37;2.67;;;2.10;;
53293;SDS011;39181;53.440;5.644;2022-11-20T04:06:07;3.55;;;2.60;;
53293;SDS011;39181;53.440;5.644;2022-11-20T04:08:35;4.03;;;2.40;;
53293;SDS011;39181;53.440;5.644;2022-11-20T04:11:14;3.28;;;2.60;;
53293;SDS011;39181;53.440;5.644;2022-11-20T04:13:40;3.40;;;2.70;;
53293;SDS011;39181;53.440;5.644;2022-11-20T04:16:07;4.70;;;3.15;;
53293;SDS011;39181;53.440;5.644;2022-11-20T04:18:34;4.93;;;3.05;;
53293;SDS011;39181;53.440;5.644;2022-11-20T04:21:00;5.15;;;3.55;;
53293;SDS011;39181;53.440;5.644;2022-11-20T04:23:26;6.32;;;3.42;;
53293;SDS011;39181;53.440;5.644;2022-11-20T04:25:52;5.90;;;3.28;;
53293;SDS011;39181;53.440;5.644;2022-11-20T04:28:18;5.32;;;3.85;;
53293;SDS011;39181;53.440;5.644;2022-11-20T04:30:43;7.13;;;3.65;;
53293;SDS011;39181;53.440;5.644;2022-11-20T04:33:09;5.25;;;3.53;;
53293;SDS011;39181;53.440;5.644;2022-11-20T04:35:35;5.78;;;3.22;;
53293;SDS011;39181;53.440;5.644;2022-11-20T04:38:01;5.20;;;3.10;;
53293;SDS011;39181;53.440;5.644;2022-11-20T04:40:27;5.68;;;3.25;;
53293;SDS011;39181;53.440;5.644;2022-11-20T04:42:53;6.15;;;3.30;;
53293;SDS011;39181;53.440;5.644;2022-11-20T04:45:19;4.95;;;2.92;;
53293;SDS011;39181;53.440;5.644;2022-11-20T04:47:44;2.92;;;2.30;;
53293;SDS011;39181;53.440;5.644;2022-11-20T04:50:10;3.58;;;2.30;;
53293;SDS011;39181;53.440;5.644;2022-11-20T04:52:36;5.03;;;2.83;;
53293;SDS011;39181;53.440;5.644;2022-11-20T04:55:01;4.15;;;2.90;;
53293;SDS011;39181;53.440;5.644;2022-11-20T04:57:28;3.13;;;2.20;;
53293;SDS011;39181;53.440;5.644;2022-11-20T04:59:53;4.18;;;2.28;;
53293;SDS011;39181;53.440;5.644;2022-11-20T05:02:19;3.92;;;2.53;;
53293;SDS011;39181;53.440;5.644;2022-11-20T05:04:45;4.47;;;2.53;;
53293;SDS011;39181;53.440;5.644;2022-11-20T05:07:11;4.05;;;2.33;;
53293;SDS011;39181;53.440;5.644;2022-11-20T05:09:36;5.25;;;2.45;;
53293;SDS011;39181;53.440;5.644;2022-11-20T05:12:02;4.47;;;2.42;;
53293;SDS011;39181;53.440;5.644;2022-11-20T05:14:28;2.88;;;1.75;;
53293;SDS011;39181;53.440;5.644;2022-11-20T05:16:53;3.20;;;2.20;;
53293;SDS011;39181;53.440;5.644;2022-11-20T05:19:19;2.45;;;1.90;;
53293;SDS011;39181;53.440;5.644;2022-11-20T05:21:44;2.92;;;2.17;;
53293;SDS011;39181;53.440;5.644;2022-11-20T05:24:10;4.60;;;2.28;;
53293;SDS011;39181;53.440;5.644;2022-11-20T05:26:35;3.90;;;2.67;;
53293;SDS011;39181;53.440;5.644;2022-11-20T05:29:01;4.82;;;2.30;;
53293;SDS011;39181;53.440;5.644;2022-11-20T05:31:27;2.83;;;1.90;;
53293;SDS011;39181;53.440;5.644;2022-11-20T05:33:52;2.92;;;1.98;;
53293;SDS011;39181;53.440;5.644;2022-11-20T05:36:18;2.80;;;1.55;;
53293;SDS011;39181;53.440;5.644;2022-11-20T05:38:44;2.67;;;1.48;;
53293;SDS011;39181;53.440;5.644;2022-11-20T05:41:11;1.98;;;1.33;;
53293;SDS011;39181;53.440;5.644;2022-11-20T05:43:39;2.15;;;1.10;;
53293;SDS011;39181;53.440;5.644;2022-11-20T05:46:06;2.17;;;1.20;;
53293;SDS011;39181;53.440;5.644;2022-11-20T05:48:33;1.95;;;1.00;;
53293;SDS011;39181;53.440;5.644;2022-11-20T05:51:00;1.30;;;1.00;;
53293;SDS011;39181;53.440;5.644;2022-11-20T05:53:27;1.20;;;0.85;;
53293;SDS011;39181;53.440;5.644;2022-11-20T05:55:57;1.15;;;0.90;;
53293;SDS011;39181;53.440;5.644;2022-11-20T05:58:23;3.17;;;1.00;;
53293;SDS011;39181;53.440;5.644;2022-11-20T06:00:48;2.13;;;1.10;;
53293;SDS011;39181;53.440;5.644;2022-11-20T06:03:14;1.27;;;1.02;;
53293;SDS011;39181;53.440;5.644;2022-11-20T06:05:39;2.97;;;1.10;;
53293;SDS011;39181;53.440;5.644;2022-11-20T06:08:05;3.95;;;1.33;;
53293;SDS011;39181;53.440;5.644;2022-11-20T06:10:30;1.80;;;0.90;;
53293;SDS011;39181;53.440;5.644;2022-11-20T06:12:59;1.65;;;0.85;;
53293;SDS011;39181;53.440;5.644;2022-11-20T06:15:25;1.75;;;0.90;;
53293;SDS011;39181;53.440;5.644;2022-11-20T06:17:54;1.17;;;0.95;;
53293;SDS011;39181;53.440;5.644;2022-11-20T06:20:21;1.80;;;1.00;;
53293;SDS011;39181;53.440;5.644;2022-11-20T06:22:47;3.28;;;0.90;;
53293;SDS011;39181;53.440;5.644;2022-11-20T06:25:12;3.15;;;1.08;;
53293;SDS011;39181;53.440;5.644;2022-11-20T06:27:38;3.15;;;1.00;;
53293;SDS011;39181;53.440;5.644;2022-11-20T06:30:04;1.98;;;1.10;;
53293;SDS011;39181;53.440;5.644;2022-11-20T06:32:30;1.80;;;0.82;;
53293;SDS011;39181;53.440;5.644;2022-11-20T06:34:56;1.70;;;0.77;;
53293;SDS011;39181;53.440;5.644;2022-11-20T06:37:21;1.10;;;0.90;;
53293;SDS011;39181;53.440;5.644;2022-11-20T06:39:47;2.55;;;0.82;;
53293;SDS011;39181;53.440;5.644;2022-11-20T06:42:12;1.20;;;0.88;;
53293;SDS011;39181;53.440;5.644;2022-11-20T06:44:38;4.95;;;1.30;;
53293;SDS011;39181;53.440;5.644;2022-11-20T06:47:03;2.20;;;1.25;;
53293;SDS011;39181;53.440;5.644;2022-11-20T06:49:29;1.80;;;1.13;;
53293;SDS011;39181;53.440;5.644;2022-11-20T06:51:54;2.13;;;1.15;;
53293;SDS011;39181;53.440;5.644;2022-11-20T06:54:20;1.65;;;1.05;;
53293;SDS011;39181;53.440;5.644;2022-11-20T06:56:48;1.88;;;0.95;;
53293;SDS011;39181;53.440;5.644;2022-11-20T06:59:14;1.63;;;1.05;;
53293;SDS011;39181;53.440;5.644;2022-11-20T07:01:40;1.35;;;0.90;;
53293;SDS011;39181;53.440;5.644;2022-11-20T07:04:05;1.27;;;0.88;;
53293;SDS011;39181;53.440;5.644;2022-11-20T07:06:31;1.17;;;0.70;;
53293;SDS011;39181;53.440;5.644;2022-11-20T07:08:57;1.00;;;0.90;;
53293;SDS011;39181;53.440;5.644;2022-11-20T07:11:22;3.42;;;0.98;;
53293;SDS011;39181;53.440;5.644;2022-11-20T07:13:48;2.03;;;1.20;;
53293;SDS011;39181;53.440;5.644;2022-11-20T07:16:14;3.22;;;1.20;;
53293;SDS011;39181;53.440;5.644;2022-11-20T07:18:39;1.67;;;0.90;;
53293;SDS011;39181;53.440;5.644;2022-11-20T07:21:06;2.53;;;1.27;;
53293;SDS011;39181;53.440;5.644;2022-11-20T07:23:33;3.78;;;2.17;;
53293;SDS011;39181;53.440;5.644;2022-11-20T07:26:06;3.05;;;2.10;;
53293;SDS011;39181;53.440;5.644;2022-11-20T07:28:33;4.80;;;2.42;;
53293;SDS011;39181;53.440;5.644;2022-11-20T07:30:59;3.35;;;2.17;;
53293;SDS011;39181;53.440;5.644;2022-11-20T07:33:24;3.42;;;2.20;;
53293;SDS011;39181;53.440;5.644;2022-11-20T07:35:50;5.07;;;2.92;;
53293;SDS011;39181;53.440;5.644;2022-11-20T07:38:15;4.00;;;2.75;;
53293;SDS011;39181;53.440;5.644;2022-11-20T07:40:41;3.70;;;2.58;;
53293;SDS011;39181;53.440;5.644;2022-11-20T07:43:06;4.40;;;2.42;;
53293;SDS011;39181;53.440;5.644;2022-11-20T07:45:32;2.58;;;1.88;;
53293;SDS011;39181;53.440;5.644;2022-11-20T07:47:58;3.33;;;2.00;;
53293;SDS011;39181;53.440;5.644;2022-11-20T07:50:23;4.70;;;3.00;;
53293;SDS011;39181;53.440;5.644;2022-11-20T07:52:49;6.32;;;3.95;;
53293;SDS011;39181;53.440;5.644;2022-11-20T07:55:14;9.02;;;4.72;;
53293;SDS011;39181;53.440;5.644;2022-11-20T07:57:40;8.68;;;4.88;;
53293;SDS011;39181;53.440;5.644;2022-11-20T08:00:06;7.15;;;4.88;;
53293;SDS011;39181;53.440;5.644;2022-11-20T08:02:34;9.52;;;5.25;;
53293;SDS011;39181;53.440;5.644;2022-11-20T08:05:03;8.50;;;5.47;;
53293;SDS011;39181;53.440;5.644;2022-11-20T08:07:28;10.23;;;5.63;;
53293;SDS011;39181;53.440;5.644;2022-11-20T08:09:54;6.20;;;4.63;;
53293;SDS011;39181;53.440;5.644;2022-11-20T08:12:20;9.43;;;5.45;;
53293;SDS011;39181;53.440;5.644;2022-11-20T08:15:05;7.30;;;4.80;;
53293;SDS011;39181;53.440;5.644;2022-11-20T08:17:31;8.30;;;5.63;;
53293;SDS011;39181;53.440;5.644;2022-11-20T08:19:57;8.38;;;5.13;;
53293;SDS011;39181;53.440;5.644;2022-11-20T08:22:23;7.80;;;5.85;;
53293;SDS011;39181;53.440;5.644;2022-11-20T08:24:49;8.80;;;5.50;;
53293;SDS011;39181;53.440;5.644;2022-11-20T08:27:15;10.27;;;6.15;;
53293;SDS011;39181;53.440;5.644;2022-11-20T08:29:40;9.82;;;6.50;;
53293;SDS011;39181;53.440;5.644;2022-11-20T08:32:06;10.23;;;6.60;;
53293;SDS011;39181;53.440;5.644;2022-11-20T08:34:31;9.95;;;6.90;;
53293;SDS011;39181;53.440;5.644;2022-11-20T08:36:57;9.85;;;6.72;;
53293;SDS011;39181;53.440;5.644;2022-11-20T08:39:22;13.15;;;6.72;;
53293;SDS011;39181;53.440;5.644;2022-11-20T08:41:48;12.05;;;7.10;;
53293;SDS011;39181;53.440;5.644;2022-11-20T08:44:13;10.70;;;6.00;;
53293;SDS011;39181;53.440;5.644;2022-11-20T08:46:40;12.23;;;7.18;;
53293;SDS011;39181;53.440;5.644;2022-11-20T08:49:10;8.95;;;6.80;;
53293;SDS011;39181;53.440;5.644;2022-11-20T08:51:37;8.98;;;6.30;;
53293;SDS011;39181;53.440;5.644;2022-11-20T08:54:03;11.75;;;6.97;;
53293;SDS011;39181;53.440;5.644;2022-11-20T08:56:29;10.52;;;6.88;;
53293;SDS011;39181;53.440;5.644;2022-11-20T08:58:54;12.32;;;6.97;;
53293;SDS011;39181;53.440;5.644;2022-11-20T09:01:20;10.50;;;6.57;;
53293;SDS011;39181;53.440;5.644;2022-11-20T09:03:48;9.13;;;6.13;;
53293;SDS011;39181;53.440;5.644;2022-11-20T09:06:14;11.55;;;6.43;;
53293;SDS011;39181;53.440;5.644;2022-11-20T09:08:40;8.90;;;6.30;;
53293;SDS011;39181;53.440;5.644;2022-11-20T09:11:05;9.55;;;6.43;;
53293;SDS011;39181;53.440;5.644;2022-11-20T09:13:32;11.68;;;6.78;;
53293;SDS011;39181;53.440;5.644;2022-11-20T09:16:00;10.95;;;6.25;;
53293;SDS011;39181;53.440;5.644;2022-11-20T09:18:33;11.23;;;6.30;;
53293;SDS011;39181;53.440;5.644;2022-11-20T09:21:03;8.75;;;6.47;;
53293;SDS011;39181;53.440;5.644;2022-11-20T09:23:35;11.70;;;6.95;;
53293;SDS011;39181;53.440;5.644;2022-11-20T09:26:03;11.95;;;6.68;;
53293;SDS011;39181;53.440;5.644;2022-11-20T09:28:29;11.90;;;7.13;;
53293;SDS011;39181;53.440;5.644;2022-11-20T09:30:55;8.38;;;6.40;;
53293;SDS011;39181;53.440;5.644;2022-11-20T09:33:21;8.93;;;6.47;;
53293;SDS011;39181;53.440;5.644;2022-11-20T09:35:46;8.07;;;6.07;;
53293;SDS011;39181;53.440;5.644;2022-11-20T09:38:12;9.40;;;6.28;;
53293;SDS011;39181;53.440;5.644;2022-11-20T09:40:40;8.60;;;6.10;;
53293;SDS011;39181;53.440;5.644;2022-11-20T09:43:23;9.93;;;6.25;;
53293;SDS011;39181;53.440;5.644;2022-11-20T09:48:48;9.68;;;5.88;;
53293;SDS011;39181;53.440;5.644;2022-11-20T09:51:51;8.82;;;5.90;;
53293;SDS011;39181;53.440;5.644;2022-11-20T09:54:22;10.23;;;6.45;;
53293;SDS011;39181;53.440;5.644;2022-11-20T09:57:02;12.35;;;6.60;;
53293;SDS011;39181;53.440;5.644;2022-11-20T09:59:43;9.75;;;6.70;;
53293;SDS011;39181;53.440;5.644;2022-11-20T10:04:59;13.02;;;7.75;;
53293;SDS011;39181;53.440;5.644;2022-11-20T10:10:33;11.25;;;7.43;;
53293;SDS011;39181;53.440;5.644;2022-11-20T10:13:10;10.50;;;7.05;;
53293;SDS011;39181;53.440;5.644;2022-11-20T10:18:45;12.55;;;7.45;;
53293;SDS011;39181;53.440;5.644;2022-11-20T10:30:11;11.18;;;7.00;;
53293;SDS011;39181;53.440;5.644;2022-11-20T10:32:42;12.05;;;7.90;;
53293;SDS011;39181;53.440;5.644;2022-11-20T10:35:18;12.00;;;8.10;;
53293;SDS011;39181;53.440;5.644;2022-11-20T10:37:52;11.68;;;7.95;;
53293;SDS011;39181;53.440;5.644;2022-11-20T10:40:25;11.88;;;7.22;;
53293;SDS011;39181;53.440;5.644;2022-11-20T10:43:24;11.05;;;7.20;;
53293;SDS011;39181;53.440;5.644;2022-11-20T10:46:05;12.77;;;7.28;;
53293;SDS011;39181;53.440;5.644;2022-11-20T10:48:36;12.68;;;8.30;;
53293;SDS011;39181;53.440;5.644;2022-11-20T10:57:00;10.82;;;7.40;;
53293;SDS011;39181;53.440;5.644;2022-11-20T10:59:49;9.27;;;6.82;;
53293;SDS011;39181;53.440;5.644;2022-11-20T11:02:21;12.13;;;7.57;;
53293;SDS011;39181;53.440;5.644;2022-11-20T11:04:51;10.88;;;7.85;;
53293;SDS011;39181;53.440;5.644;2022-11-20T11:07:30;12.23;;;7.28;;
53293;SDS011;39181;53.440;5.644;2022-11-20T11:10:05;10.73;;;7.47;;
53293;SDS011;39181;53.440;5.644;2022-11-20T11:12:59;12.75;;;7.07;;
53293;SDS011;39181;53.440;5.644;2022-11-20T11:15:29;11.45;;;8.00;;
53293;SDS011;39181;53.440;5.644;2022-11-20T11:17:55;10.27;;;7.45;;
53293;SDS011;39181;53.440;5.644;2022-11-20T11:20:22;11.10;;;8.00;;
53293;SDS011;39181;53.440;5.644;2022-11-20T11:22:53;13.20;;;7.53;;
53293;SDS011;39181;53.440;5.644;2022-11-20T11:25:21;12.50;;;7.25;;
53293;SDS011;39181;53.440;5.644;2022-11-20T11:27:51;11.70;;;8.15;;
53293;SDS011;39181;53.440;5.644;2022-11-20T11:30:18;12.35;;;8.48;;
53293;SDS011;39181;53.440;5.644;2022-11-20T11:32:45;12.65;;;7.88;;
53293;SDS011;39181;53.440;5.644;2022-11-20T11:35:21;12.77;;;7.75;;
53293;SDS011;39181;53.440;5.644;2022-11-20T11:37:52;9.38;;;6.78;;
53293;SDS011;39181;53.440;5.644;2022-11-20T11:40:39;11.25;;;7.50;;
53293;SDS011;39181;53.440;5.644;2022-11-20T11:43:06;10.25;;;7.55;;
53293;SDS011;39181;53.440;5.644;2022-11-20T11:46:02;10.07;;;7.93;;
53293;SDS011;39181;53.440;5.644;2022-11-20T11:48:31;14.02;;;7.97;;
53293;SDS011;39181;53.440;5.644;2022-11-20T11:50:57;11.73;;;7.43;;
53293;SDS011;39181;53.440;5.644;2022-11-20T11:53:23;10.98;;;7.90;;
53293;SDS011;39181;53.440;5.644;2022-11-20T11:55:54;11.18;;;7.55;;
53293;SDS011;39181;53.440;5.644;2022-11-20T12:01:32;10.13;;;7.03;;
53293;SDS011;39181;53.440;5.644;2022-11-20T12:04:04;9.43;;;6.25;;
53293;SDS011;39181;53.440;5.644;2022-11-20T12:06:51;11.43;;;7.05;;
53293;SDS011;39181;53.440;5.644;2022-11-20T12:09:24;8.80;;;6.25;;
53293;SDS011;39181;53.440;5.644;2022-11-20T12:12:06;11.38;;;6.40;;
53293;SDS011;39181;53.440;5.644;2022-11-20T12:14:38;12.18;;;7.20;;
53293;SDS011;39181;53.440;5.644;2022-11-20T12:17:11;10.57;;;6.47;;
53293;SDS011;39181;53.440;5.644;2022-11-20T12:19:37;10.05;;;6.75;;
53293;SDS011;39181;53.440;5.644;2022-11-20T12:24:52;10.90;;;6.93;;
53293;SDS011;39181;53.440;5.644;2022-11-20T12:27:32;10.95;;;7.60;;
53293;SDS011;39181;53.440;5.644;2022-11-20T12:30:15;10.13;;;7.50;;
53293;SDS011;39181;53.440;5.644;2022-11-20T12:40:52;8.98;;;5.55;;
53293;SDS011;39181;53.440;5.644;2022-11-20T12:43:44;8.13;;;5.20;;
53293;SDS011;39181;53.440;5.644;2022-11-20T12:46:46;7.32;;;5.25;;
53293;SDS011;39181;53.440;5.644;2022-11-20T12:53:10;7.40;;;4.68;;
53293;SDS011;39181;53.440;5.644;2022-11-20T12:56:16;9.30;;;4.85;;
53293;SDS011;39181;53.440;5.644;2022-11-20T13:01:44;6.32;;;4.75;;
53293;SDS011;39181;53.440;5.644;2022-11-20T13:07:29;7.68;;;4.80;;
53293;SDS011;39181;53.440;5.644;2022-11-20T13:09:57;7.82;;;4.22;;
53293;SDS011;39181;53.440;5.644;2022-11-20T13:12:32;5.75;;;3.80;;
53293;SDS011;39181;53.440;5.644;2022-11-20T13:15:14;7.07;;;4.15;;
53293;SDS011;39181;53.440;5.644;2022-11-20T13:18:00;7.55;;;4.57;;
53293;SDS011;39181;53.440;5.644;2022-11-20T13:20:27;7.07;;;3.90;;
53293;SDS011;39181;53.440;5.644;2022-11-20T13:22:55;6.72;;;3.70;;
53293;SDS011;39181;53.440;5.644;2022-11-20T13:27:56;6.63;;;3.92;;
53293;SDS011;39181;53.440;5.644;2022-11-20T13:30:24;5.30;;;3.70;;
53293;SDS011;39181;53.440;5.644;2022-11-20T13:32:52;6.38;;;3.45;;
53293;SDS011;39181;53.440;5.644;2022-11-20T13:38:01;4.30;;;3.20;;
53293;SDS011;39181;53.440;5.644;2022-11-20T13:40:33;4.20;;;3.28;;
53293;SDS011;39181;53.440;5.644;2022-11-20T13:43:02;9.00;;;5.05;;
53293;SDS011;39181;53.440;5.644;2022-11-20T13:45:30;5.75;;;3.92;;
53293;SDS011;39181;53.440;5.644;2022-11-20T13:47:57;6.97;;;3.80;;
53293;SDS011;39181;53.440;5.644;2022-11-20T13:55:43;4.50;;;3.35;;
53293;SDS011;39181;53.440;5.644;2022-11-20T14:01:16;5.38;;;3.40;;
53293;SDS011;39181;53.440;5.644;2022-11-20T14:03:45;5.82;;;4.32;;
53293;SDS011;39181;53.440;5.644;2022-11-20T14:06:14;6.15;;;4.32;;
53293;SDS011;39181;53.440;5.644;2022-11-20T14:08:52;8.18;;;5.07;;
53293;SDS011;39181;53.440;5.644;2022-11-20T14:11:22;6.28;;;3.75;;
53293;SDS011;39181;53.440;5.644;2022-11-20T14:13:51;6.93;;;4.55;;
53293;SDS011;39181;53.440;5.644;2022-11-20T14:16:50;6.43;;;4.75;;
53293;SDS011;39181;53.440;5.644;2022-11-20T14:21:46;8.25;;;4.15;;
53293;SDS011;39181;53.440;5.644;2022-11-20T14:24:19;7.50;;;4.68;;
53293;SDS011;39181;53.440;5.644;2022-11-20T14:26:46;5.45;;;3.80;;
53293;SDS011;39181;53.440;5.644;2022-11-20T14:29:16;6.22;;;4.30;;
53293;SDS011;39181;53.440;5.644;2022-11-20T14:31:46;8.10;;;4.47;;
53293;SDS011;39181;53.440;5.644;2022-11-20T14:34:16;5.07;;;3.13;;
53293;SDS011;39181;53.440;5.644;2022-11-20T14:36:44;7.38;;;4.05;;
53293;SDS011;39181;53.440;5.644;2022-11-20T14:39:11;6.85;;;4.13;;
53293;SDS011;39181;53.440;5.644;2022-11-20T14:41:50;6.47;;;4.50;;
53293;SDS011;39181;53.440;5.644;2022-11-20T14:44:17;6.28;;;4.32;;
53293;SDS011;39181;53.440;5.644;2022-11-20T14:46:44;5.50;;;3.72;;
53293;SDS011;39181;53.440;5.644;2022-11-20T14:49:10;6.78;;;3.97;;
53293;SDS011;39181;53.440;5.644;2022-11-20T14:51:37;7.45;;;4.30;;
53293;SDS011;39181;53.440;5.644;2022-11-20T14:54:07;5.63;;;4.03;;
53293;SDS011;39181;53.440;5.644;2022-11-20T14:56:41;6.10;;;4.15;;
53293;SDS011;39181;53.440;5.644;2022-11-20T14:59:07;7.05;;;4.38;;
53293;SDS011;39181;53.440;5.644;2022-11-20T15:01:33;6.90;;;3.92;;
53293;SDS011;39181;53.440;5.644;2022-11-20T15:04:07;6.55;;;3.90;;
53293;SDS011;39181;53.440;5.644;2022-11-20T15:06:35;8.52;;;4.18;;
53293;SDS011;39181;53.440;5.644;2022-11-20T15:09:04;5.93;;;4.00;;
53293;SDS011;39181;53.440;5.644;2022-11-20T15:11:39;8.13;;;4.38;;
53293;SDS011;39181;53.440;5.644;2022-11-20T15:14:05;5.30;;;4.10;;
53293;SDS011;39181;53.440;5.644;2022-11-20T15:16:34;7.57;;;4.47;;
53293;SDS011;39181;53.440;5.644;2022-11-20T15:18:59;6.07;;;4.18;;
53293;SDS011;39181;53.440;5.644;2022-11-20T15:21:41;5.45;;;3.95;;
53293;SDS011;39181;53.440;5.644;2022-11-20T15:24:08;5.47;;;4.05;;
53293;SDS011;39181;53.440;5.644;2022-11-20T15:26:34;7.13;;;4.43;;
53293;SDS011;39181;53.440;5.644;2022-11-20T15:29:00;5.57;;;4.03;;
53293;SDS011;39181;53.440;5.644;2022-11-20T15:31:28;6.90;;;4.57;;
53293;SDS011;39181;53.440;5.644;2022-11-20T15:33:54;6.32;;;4.15;;
53293;SDS011;39181;53.440;5.644;2022-11-20T15:36:19;6.90;;;4.85;;
53293;SDS011;39181;53.440;5.644;2022-11-20T15:38:45;7.75;;;4.65;;
53293;SDS011;39181;53.440;5.644;2022-11-20T15:41:10;6.38;;;5.00;;
53293;SDS011;39181;53.440;5.644;2022-11-20T15:43:36;8.13;;;4.85;;
53293;SDS011;39181;53.440;5.644;2022-11-20T15:46:04;7.05;;;4.60;;
53293;SDS011;39181;53.440;5.644;2022-11-20T15:48:35;6.43;;;4.32;;
53293;SDS011;39181;53.440;5.644;2022-11-20T15:51:16;8.95;;;5.00;;
53293;SDS011;39181;53.440;5.644;2022-11-20T15:53:46;5.75;;;4.18;;
53293;SDS011;39181;53.440;5.644;2022-11-20T15:56:12;6.03;;;4.60;;
53293;SDS011;39181;53.440;5.644;2022-11-20T15:58:38;6.68;;;4.53;;
53293;SDS011;39181;53.440;5.644;2022-11-20T16:01:05;6.45;;;4.05;;
53293;SDS011;39181;53.440;5.644;2022-11-20T16:03:34;6.07;;;4.13;;
53293;SDS011;39181;53.440;5.644;2022-11-20T16:06:00;5.45;;;4.03;;
53293;SDS011;39181;53.440;5.644;2022-11-20T16:08:25;7.18;;;4.32;;
53293;SDS011;39181;53.440;5.644;2022-11-20T16:10:51;7.25;;;4.68;;
53293;SDS011;39181;53.440;5.644;2022-11-20T16:13:17;6.85;;;4.25;;
53293;SDS011;39181;53.440;5.644;2022-11-20T16:16:03;5.53;;;3.78;;